createdAt,value
2018-08-13T00:01:38.658Z,6.80
2018-08-13T00:04:14.248Z,4.80
2018-08-13T00:06:49.222Z,5.80
2018-08-13T00:13:08.654Z,5.63
2018-08-13T00:15:43.613Z,6.23
2018-08-13T00:18:19.470Z,3.90
2018-08-13T00:20:54.623Z,6.20
2018-08-13T00:23:29.501Z,8.50
2018-08-13T00:26:05.150Z,5.03
2018-08-13T00:28:40.618Z,3.83
2018-08-13T00:31:15.524Z,3.60
2018-08-13T00:33:50.579Z,4.00
2018-08-13T00:36:25.622Z,3.63
2018-08-13T00:39:00.849Z,5.27
2018-08-13T00:41:36.625Z,3.60
2018-08-13T00:44:11.635Z,3.77
2018-08-13T00:46:47.622Z,5.63
2018-08-13T00:49:22.617Z,5.00
2018-08-13T00:51:58.107Z,5.43
2018-08-13T00:54:33.097Z,4.47
2018-08-13T00:57:09.011Z,6.00
2018-08-13T00:59:43.956Z,5.27
2018-08-13T01:02:19.390Z,4.93
2018-08-13T01:04:54.188Z,4.53
2018-08-13T01:07:29.148Z,4.23
2018-08-13T01:10:05.305Z,5.30
2018-08-13T01:12:40.549Z,6.70
2018-08-13T01:15:16.849Z,3.87
2018-08-13T01:17:52.238Z,3.83
2018-08-13T01:20:27.436Z,5.30
2018-08-13T01:23:02.483Z,4.27
2018-08-13T01:25:37.531Z,3.30
2018-08-13T01:28:12.354Z,4.67
2018-08-13T01:30:47.510Z,3.40
2018-08-13T01:33:22.730Z,4.17
2018-08-13T01:35:57.548Z,5.23
2018-08-13T01:38:33.121Z,5.43
2018-08-13T01:41:08.990Z,4.00
2018-08-13T01:43:44.098Z,5.43
2018-08-13T01:46:19.632Z,5.83
2018-08-13T01:48:54.894Z,5.33
2018-08-13T01:51:30.332Z,3.77
2018-08-13T01:54:05.475Z,5.20
2018-08-13T01:56:40.462Z,3.80
2018-08-13T01:59:15.475Z,3.80
2018-08-13T02:01:50.831Z,4.80
2018-08-13T02:04:26.527Z,3.83
2018-08-13T02:07:02.202Z,8.00
2018-08-13T02:09:39.001Z,3.90
2018-08-13T02:12:15.018Z,5.10
2018-08-13T02:14:50.023Z,4.73
2018-08-13T02:17:25.510Z,3.50
2018-08-13T02:20:00.953Z,3.70
2018-08-13T02:22:36.188Z,4.13
2018-08-13T02:25:12.053Z,4.00
2018-08-13T02:27:48.104Z,3.57
2018-08-13T02:30:23.243Z,3.40
2018-08-13T02:32:58.874Z,4.70
2018-08-13T02:35:34.222Z,4.70
2018-08-13T02:38:09.738Z,5.10
2018-08-13T02:40:46.040Z,3.60
2018-08-13T02:43:21.460Z,3.10
2018-08-13T02:45:56.586Z,3.57
2018-08-13T02:48:31.723Z,3.57
2018-08-13T02:51:08.246Z,4.93
2018-08-13T02:53:44.001Z,8.73
2018-08-13T02:56:19.899Z,4.27
2018-08-13T02:58:54.715Z,3.87
2018-08-13T03:01:30.707Z,3.30
2018-08-13T03:04:05.686Z,3.30
2018-08-13T03:06:40.643Z,3.17
2018-08-13T03:09:15.957Z,3.50
2018-08-13T03:11:50.950Z,3.57
2018-08-13T03:14:25.980Z,3.27
2018-08-13T03:17:01.344Z,3.17
2018-08-13T03:19:36.541Z,4.50
2018-08-13T03:22:13.310Z,4.33
2018-08-13T03:24:48.230Z,7.60
2018-08-13T03:27:23.548Z,3.20
2018-08-13T03:29:59.698Z,3.80
2018-08-13T03:32:34.730Z,3.90
2018-08-13T03:35:10.804Z,4.00
2018-08-13T03:37:45.773Z,4.60
2018-08-13T03:40:20.933Z,4.33
2018-08-13T03:42:56.269Z,4.33
2018-08-13T03:45:31.076Z,4.10
2018-08-13T03:48:06.528Z,4.20
2018-08-13T03:50:41.445Z,3.67
2018-08-13T03:53:16.684Z,4.83
2018-08-13T03:55:51.597Z,3.70
2018-08-13T03:58:26.715Z,4.40
2018-08-13T04:01:01.947Z,4.23
2018-08-13T04:03:36.960Z,6.20
2018-08-13T04:06:12.211Z,3.67
2018-08-13T04:08:47.654Z,4.37
2018-08-13T04:11:22.909Z,7.87
2018-08-13T04:13:57.930Z,4.57
2018-08-13T04:16:33.129Z,5.60
2018-08-13T04:19:09.009Z,8.10
2018-08-13T04:21:43.962Z,4.87
2018-08-13T04:24:19.132Z,7.80
2018-08-13T04:26:54.183Z,4.67
2018-08-13T04:29:29.199Z,6.07
2018-08-13T04:32:04.317Z,9.27
2018-08-13T04:34:46.061Z,6.37
2018-08-13T04:37:21.342Z,7.17
2018-08-13T04:39:56.382Z,6.83
2018-08-13T04:42:31.514Z,6.60
2018-08-13T04:45:08.476Z,7.50
2018-08-13T04:47:53.023Z,7.00
2018-08-13T04:50:27.969Z,6.67
2018-08-13T04:53:03.449Z,7.03
2018-08-13T04:55:38.721Z,7.17
2018-08-13T04:58:14.501Z,9.43
2018-08-13T05:00:50.623Z,7.50
2018-08-13T05:03:25.832Z,7.77
2018-08-13T05:06:01.654Z,8.80
2018-08-13T05:08:36.692Z,9.07
2018-08-13T05:11:12.074Z,8.80
2018-08-13T05:13:47.608Z,7.90
2018-08-13T05:16:23.049Z,8.23
2018-08-13T05:18:58.091Z,7.63
2018-08-13T05:21:33.184Z,8.93
2018-08-13T05:24:08.125Z,8.17
2018-08-13T05:26:43.318Z,11.63
2018-08-13T05:29:18.402Z,8.83
2018-08-13T05:31:53.477Z,10.43
2018-08-13T05:34:28.677Z,8.97
2018-08-13T05:37:03.815Z,7.63
2018-08-13T05:39:38.745Z,8.43
2018-08-13T05:42:15.096Z,13.47
2018-08-13T05:44:50.290Z,12.40
2018-08-13T05:47:25.190Z,10.50
2018-08-13T05:50:00.360Z,8.63
2018-08-13T05:52:42.370Z,10.63
2018-08-13T05:55:17.378Z,7.73
2018-08-13T05:57:52.533Z,8.43
2018-08-13T06:00:27.968Z,13.47
2018-08-13T06:03:03.136Z,9.33
2018-08-13T06:05:38.397Z,11.17
2018-08-13T06:08:14.392Z,10.43
2018-08-13T06:10:50.381Z,14.23
2018-08-13T06:13:25.447Z,13.37
2018-08-13T06:16:00.367Z,13.20
2018-08-13T06:18:35.645Z,11.50
2018-08-13T06:21:10.746Z,14.23
2018-08-13T06:23:46.100Z,10.73
2018-08-13T06:26:20.996Z,12.90
2018-08-13T06:28:56.355Z,9.97
2018-08-13T06:31:31.881Z,13.07
2018-08-13T06:34:07.011Z,13.37
2018-08-13T06:36:42.778Z,10.53
2018-08-13T06:39:19.220Z,11.87
2018-08-13T06:41:54.140Z,14.90
2018-08-13T06:44:29.445Z,10.00
2018-08-13T06:47:04.617Z,11.43
2018-08-13T06:49:40.360Z,10.53
2018-08-13T06:52:15.987Z,13.43
2018-08-13T06:54:51.329Z,13.33
2018-08-13T06:57:26.522Z,11.20
2018-08-13T07:00:01.580Z,13.83
2018-08-13T07:02:36.863Z,13.00
2018-08-13T07:05:12.023Z,12.70
2018-08-13T07:07:47.340Z,12.73
2018-08-13T07:10:22.720Z,11.47
2018-08-13T07:12:58.629Z,11.50
2018-08-13T07:15:34.036Z,8.77
2018-08-13T07:18:10.163Z,9.00
2018-08-13T07:20:45.716Z,9.90
2018-08-13T07:23:20.770Z,12.03
2018-08-13T07:25:55.840Z,10.63
2018-08-13T07:28:31.261Z,10.27
2018-08-13T07:31:07.861Z,12.43
2018-08-13T07:33:43.988Z,9.63
2018-08-13T07:36:19.431Z,9.37
2018-08-13T07:38:54.676Z,10.73
2018-08-13T07:41:30.021Z,11.73
2018-08-13T07:44:05.652Z,15.30
2018-08-13T07:46:40.868Z,11.20
2018-08-13T07:49:16.772Z,15.00
2018-08-13T07:51:52.011Z,11.30
2018-08-13T07:54:27.611Z,12.47
2018-08-13T07:57:03.167Z,12.73
2018-08-13T07:59:38.993Z,11.07
2018-08-13T08:02:14.053Z,12.03
2018-08-13T08:04:50.997Z,10.70
2018-08-13T08:07:26.340Z,11.57
2018-08-13T08:10:02.459Z,12.30
2018-08-13T08:12:38.358Z,9.20
2018-08-13T08:15:15.379Z,8.73
2018-08-13T08:17:50.682Z,8.93
2018-08-13T08:20:25.671Z,9.07
2018-08-13T08:23:01.742Z,11.13
2018-08-13T08:25:36.906Z,7.70
2018-08-13T08:28:12.087Z,7.40
2018-08-13T08:30:47.375Z,8.43
2018-08-13T08:33:23.632Z,8.90
2018-08-13T08:35:58.847Z,9.93
2018-08-13T08:38:34.618Z,8.00
2018-08-13T08:41:10.926Z,8.07
2018-08-13T08:43:46.263Z,7.57
2018-08-13T08:46:21.585Z,8.80
2018-08-13T08:48:56.706Z,9.67
2018-08-13T08:51:32.123Z,8.10
2018-08-13T08:54:07.878Z,10.00
2018-08-13T08:56:43.320Z,11.10
2018-08-13T08:59:19.412Z,8.20
2018-08-13T09:01:55.389Z,7.17
2018-08-13T09:04:30.586Z,12.93
2018-08-13T09:07:05.729Z,7.93
2018-08-13T09:09:41.497Z,8.47
2018-08-13T09:12:16.273Z,9.67
2018-08-13T09:14:51.445Z,7.97
2018-08-13T09:17:37.519Z,11.80
2018-08-13T09:20:23.775Z,10.00
2018-08-13T09:23:10.045Z,11.83
2018-08-13T09:25:56.175Z,10.77
2018-08-13T09:28:42.690Z,10.07
2018-08-13T09:32:37.647Z,10.67
2018-08-13T09:35:20.787Z,14.50
2018-08-13T09:37:57.824Z,11.50
2018-08-13T09:40:33.578Z,9.77
2018-08-13T09:43:08.755Z,9.77
2018-08-13T09:45:44.204Z,8.97
2018-08-13T09:48:20.169Z,9.77
2018-08-13T09:50:55.465Z,9.07
2018-08-13T09:53:30.566Z,10.00
2018-08-13T09:56:06.110Z,8.37
2018-08-13T09:58:41.102Z,9.30
2018-08-13T10:01:16.239Z,10.07
2018-08-13T10:03:51.593Z,8.47
2018-08-13T10:06:26.900Z,8.70
2018-08-13T10:09:01.768Z,8.30
2018-08-13T10:11:36.663Z,9.07
2018-08-13T10:14:12.237Z,10.20
2018-08-13T10:16:47.670Z,9.90
2018-08-13T10:19:22.595Z,8.27
2018-08-13T10:21:57.773Z,8.80
2018-08-13T10:24:33.078Z,10.07
2018-08-13T10:27:08.399Z,11.10
2018-08-13T10:29:43.670Z,13.60
2018-08-13T10:32:19.228Z,8.20
2018-08-13T10:34:54.588Z,7.43
2018-08-13T10:37:30.059Z,7.60
2018-08-13T10:40:14.840Z,9.90
2018-08-13T10:42:50.045Z,6.93
2018-08-13T10:45:25.170Z,6.30
2018-08-13T10:48:00.374Z,7.40
2018-08-13T10:50:35.630Z,6.47
2018-08-13T10:53:10.529Z,5.80
2018-08-13T10:55:45.527Z,10.73
2018-08-13T10:58:21.217Z,5.83
2018-08-13T11:00:56.426Z,6.83
2018-08-13T11:03:33.187Z,6.27
2018-08-13T11:06:08.295Z,8.13
2018-08-13T11:08:46.663Z,6.30
2018-08-13T11:11:22.012Z,5.43
2018-08-13T11:13:57.176Z,5.73
2018-08-13T11:16:32.416Z,6.23
2018-08-13T11:19:07.818Z,5.53
2018-08-13T11:21:42.994Z,6.70
2018-08-13T11:24:18.272Z,7.90
2018-08-13T11:26:54.306Z,5.10
2018-08-13T11:29:29.350Z,6.87
2018-08-13T11:32:04.770Z,6.13
2018-08-13T11:34:34.590Z,5.43
2018-08-13T11:37:03.945Z,6.40
2018-08-13T11:39:33.775Z,6.43
2018-08-13T11:42:03.617Z,7.03
2018-08-13T11:44:33.089Z,9.63
2018-08-13T11:47:02.469Z,6.77
2018-08-13T11:49:32.182Z,8.63
2018-08-13T11:52:01.950Z,6.70
2018-08-13T11:54:31.352Z,7.63
2018-08-13T11:57:01.085Z,6.80
2018-08-13T11:59:30.257Z,5.93
2018-08-13T12:01:59.886Z,9.80
2018-08-13T12:04:29.365Z,12.67
2018-08-13T12:06:59.316Z,10.10
2018-08-13T12:09:29.459Z,10.03
2018-08-13T12:11:58.926Z,47.40
2018-08-13T12:14:34.219Z,16.00
2018-08-13T12:17:09.768Z,13.90
2018-08-13T12:19:44.856Z,16.00
2018-08-13T12:22:19.917Z,17.60
2018-08-13T12:24:55.803Z,17.17
2018-08-13T12:27:31.421Z,18.90
2018-08-13T12:30:08.938Z,19.70
2018-08-13T12:32:43.923Z,18.40
2018-08-13T12:35:19.717Z,15.73
2018-08-13T12:37:54.767Z,15.30
2018-08-13T12:40:30.016Z,13.30
2018-08-13T12:43:05.380Z,13.33
2018-08-13T12:45:40.584Z,12.23
2018-08-13T12:48:16.240Z,8.27
2018-08-13T12:50:51.610Z,8.73
2018-08-13T12:53:27.172Z,6.80
2018-08-13T12:56:02.679Z,7.63
2018-08-13T12:58:38.263Z,6.03
2018-08-13T13:01:13.447Z,6.10
2018-08-13T13:03:48.780Z,10.53
2018-08-13T13:06:24.087Z,7.20
2018-08-13T13:08:59.628Z,6.50
2018-08-13T13:11:34.652Z,10.70
2018-08-13T13:14:10.500Z,6.70
2018-08-13T13:16:45.924Z,6.30
2018-08-13T13:19:20.840Z,6.63
2018-08-13T13:21:56.175Z,7.10
2018-08-13T13:24:32.182Z,9.30
2018-08-13T13:27:08.179Z,8.47
2018-08-13T13:29:43.583Z,7.80
2018-08-13T13:32:18.762Z,8.77
2018-08-13T13:34:54.645Z,7.33
2018-08-13T13:37:29.810Z,7.30
2018-08-13T13:40:07.209Z,9.10
2018-08-13T13:42:42.857Z,8.20
2018-08-13T13:45:18.958Z,7.30
2018-08-13T13:47:55.433Z,8.13
2018-08-13T13:50:31.141Z,16.77
2018-08-13T13:53:06.907Z,10.37
2018-08-13T13:55:42.603Z,4.73
2018-08-13T13:58:18.036Z,3.87
2018-08-13T14:00:53.430Z,3.10
2018-08-13T14:03:28.678Z,21.07
2018-08-13T14:06:04.068Z,30.20
2018-08-13T14:08:39.192Z,12.30
2018-08-13T14:11:14.794Z,9.70
2018-08-13T14:13:52.956Z,11.33
2018-08-13T14:16:28.429Z,11.43
2018-08-13T14:18:58.307Z,18.67
2018-08-13T14:21:33.668Z,14.87
2018-08-13T14:24:08.807Z,15.80
2018-08-13T14:26:44.906Z,16.90
2018-08-13T14:29:20.095Z,16.80
2018-08-13T14:31:55.697Z,19.27
2018-08-13T14:34:30.945Z,21.20
2018-08-13T14:37:06.316Z,21.00
2018-08-13T14:39:42.324Z,21.20
2018-08-13T14:42:17.667Z,17.83
2018-08-13T14:44:53.289Z,16.80
2018-08-13T14:47:30.200Z,21.30
2018-08-13T14:50:06.646Z,15.50
2018-08-13T14:52:43.604Z,18.47
2018-08-13T14:55:21.293Z,22.53
2018-08-13T14:57:56.615Z,16.67
2018-08-13T15:00:34.132Z,20.43
2018-08-13T15:03:11.874Z,17.40
2018-08-13T15:05:47.203Z,23.00
2018-08-13T15:08:22.411Z,18.97
2018-08-13T15:10:57.947Z,19.63
2018-08-13T15:13:32.992Z,17.37
2018-08-13T15:16:08.669Z,17.13
2018-08-13T15:18:43.755Z,18.77
2018-08-13T15:21:19.008Z,22.53
2018-08-13T15:23:54.367Z,19.33
2018-08-13T15:26:30.086Z,18.60
2018-08-13T15:29:05.091Z,13.37
2018-08-13T15:31:40.326Z,13.10
2018-08-13T15:34:15.366Z,11.33
2018-08-13T15:36:50.543Z,11.80
2018-08-13T15:39:25.470Z,12.20
2018-08-13T15:42:01.137Z,10.43
2018-08-13T15:44:36.373Z,10.70
2018-08-13T15:47:11.845Z,11.20
2018-08-13T15:49:47.467Z,8.67
2018-08-13T15:52:17.139Z,8.33
2018-08-13T15:54:52.292Z,9.20
2018-08-13T15:57:28.171Z,6.70
2018-08-13T16:00:03.675Z,6.43
2018-08-13T16:02:39.231Z,6.83
2018-08-13T16:05:15.893Z,7.40
2018-08-13T16:07:52.713Z,6.03
2018-08-13T16:10:28.511Z,6.27
2018-08-13T16:13:03.396Z,5.50
2018-08-13T16:15:39.557Z,4.40
2018-08-13T16:18:14.882Z,4.60
2018-08-13T16:20:50.221Z,4.80
2018-08-13T16:23:25.605Z,5.10
2018-08-13T16:26:00.642Z,5.10
2018-08-13T16:28:35.856Z,5.20
2018-08-13T16:31:11.222Z,6.27
2018-08-13T16:33:46.290Z,7.47
2018-08-13T16:36:21.263Z,8.27
2018-08-13T16:38:56.367Z,7.77
2018-08-13T16:41:31.511Z,8.23
2018-08-13T16:44:07.372Z,7.23
2018-08-13T16:46:43.044Z,9.90
2018-08-13T16:49:18.321Z,7.50
2018-08-13T16:51:53.208Z,7.20
2018-08-13T16:54:28.644Z,7.83
2018-08-13T16:57:03.876Z,7.57
2018-08-13T16:59:38.870Z,6.53
2018-08-13T17:02:13.950Z,9.17
2018-08-13T17:04:49.430Z,6.43
2018-08-13T17:07:24.795Z,5.40
2018-08-13T17:10:00.767Z,4.87
2018-08-13T17:12:36.043Z,4.27
2018-08-13T17:15:11.986Z,5.33
2018-08-13T17:17:49.571Z,5.60
2018-08-13T17:20:31.546Z,5.77
2018-08-13T17:23:07.102Z,7.23
2018-08-13T17:25:42.363Z,6.07
2018-08-13T17:28:17.659Z,6.40
2018-08-13T17:30:53.412Z,6.57
2018-08-13T17:33:29.125Z,7.47
2018-08-13T17:36:04.874Z,8.43
2018-08-13T17:38:39.818Z,6.90
2018-08-13T17:41:14.935Z,8.33
2018-08-13T17:43:49.878Z,7.17
2018-08-13T17:46:24.917Z,7.00
2018-08-13T17:49:00.165Z,6.17
2018-08-13T17:51:35.477Z,8.43
2018-08-13T17:54:10.730Z,6.17
2018-08-13T17:56:48.834Z,5.97
2018-08-13T17:59:23.845Z,5.50
2018-08-13T18:01:53.338Z,5.93
2018-08-13T18:04:28.793Z,5.97
2018-08-13T18:07:04.281Z,5.87
2018-08-13T18:09:39.364Z,6.23
2018-08-13T18:12:14.504Z,10.07
2018-08-13T18:14:50.456Z,7.80
2018-08-13T18:17:25.705Z,6.00
2018-08-13T18:20:01.338Z,5.87
2018-08-13T18:22:36.431Z,5.47
2018-08-13T18:25:13.657Z,5.60
2018-08-13T18:27:50.590Z,6.10
2018-08-13T18:30:27.151Z,4.50
2018-08-13T18:33:03.711Z,4.83
2018-08-13T18:35:46.996Z,5.07
2018-08-13T18:38:22.351Z,5.17
2018-08-13T18:40:57.855Z,4.70
2018-08-13T18:43:33.724Z,4.20
2018-08-13T18:46:09.103Z,7.37
2018-08-13T18:48:44.890Z,3.60
2018-08-13T18:51:23.269Z,4.63
2018-08-13T18:53:58.522Z,4.00
2018-08-13T18:56:33.963Z,4.00
2018-08-13T18:59:09.566Z,6.37
2018-08-13T19:01:44.576Z,4.97
2018-08-13T19:04:19.696Z,4.27
2018-08-13T19:06:54.984Z,4.17
2018-08-13T19:09:30.407Z,4.57
2018-08-13T19:12:06.047Z,3.53
2018-08-13T19:14:41.683Z,6.77
2018-08-13T19:17:17.650Z,3.80
2018-08-13T19:19:53.166Z,4.83
2018-08-13T19:22:28.493Z,6.33
2018-08-13T19:25:03.791Z,3.73
2018-08-13T19:27:39.934Z,3.77
2018-08-13T19:30:16.887Z,3.27
2018-08-13T19:32:52.659Z,3.73
2018-08-13T19:35:28.037Z,3.53
2018-08-13T19:38:03.317Z,3.30
2018-08-13T19:40:39.183Z,5.33
2018-08-13T19:43:14.692Z,3.83
2018-08-13T19:45:50.023Z,3.53
2018-08-13T19:48:25.757Z,4.70
2018-08-13T19:51:01.156Z,3.57
2018-08-13T19:53:36.924Z,3.63
2018-08-13T19:56:12.577Z,4.27
2018-08-13T19:58:48.118Z,4.00
2018-08-13T20:01:23.547Z,3.83
2018-08-13T20:03:58.744Z,4.47
2018-08-13T20:06:34.554Z,3.80
2018-08-13T20:09:11.460Z,4.70
2018-08-13T20:11:51.360Z,4.77
2018-08-13T20:14:27.137Z,6.07
2018-08-13T20:16:56.875Z,4.03
2018-08-13T20:19:32.995Z,7.90
2018-08-13T20:22:14.466Z,5.70
2018-08-13T20:24:49.779Z,3.97
2018-08-13T20:27:25.961Z,4.30
2018-08-13T20:30:01.956Z,4.73
2018-08-13T20:32:37.560Z,4.57
2018-08-13T20:35:13.123Z,4.90
2018-08-13T20:37:49.409Z,4.70
2018-08-13T20:40:25.241Z,4.90
2018-08-13T20:43:00.365Z,4.43
2018-08-13T20:45:35.350Z,4.60
2018-08-13T20:48:11.566Z,5.33
2018-08-13T20:50:47.328Z,6.97
2018-08-13T20:53:22.605Z,6.60
2018-08-13T20:55:58.771Z,5.27
2018-08-13T20:58:33.983Z,5.27
2018-08-13T21:01:09.314Z,4.77
2018-08-13T21:03:44.824Z,5.90
2018-08-13T21:06:19.989Z,6.23
2018-08-13T21:08:55.862Z,5.57
2018-08-13T21:11:25.408Z,5.90
2018-08-13T21:14:00.534Z,8.00
2018-08-13T21:16:35.834Z,5.60
2018-08-13T21:19:10.939Z,5.53
2018-08-13T21:21:46.201Z,5.27
2018-08-13T21:24:21.362Z,5.80
2018-08-13T21:26:56.685Z,5.37
2018-08-13T21:29:32.787Z,5.67
2018-08-13T21:32:08.561Z,5.27
2018-08-13T21:34:43.716Z,6.57
2018-08-13T21:37:19.868Z,5.37
2018-08-13T21:39:55.890Z,6.80
2018-08-13T21:42:31.331Z,9.63
2018-08-13T21:45:07.925Z,7.60
2018-08-13T21:47:43.071Z,10.20
2018-08-13T21:50:20.775Z,8.80
2018-08-13T21:52:56.256Z,6.73
2018-08-13T21:55:32.052Z,11.70
2018-08-13T21:58:07.400Z,17.00
2018-08-13T22:00:47.986Z,10.13
2018-08-13T22:03:23.977Z,21.33
2018-08-13T22:05:59.810Z,16.20
2018-08-13T22:08:35.408Z,12.17
2018-08-13T22:11:11.472Z,13.20
2018-08-13T22:13:51.479Z,20.00
2018-08-13T22:16:26.945Z,11.63
2018-08-13T22:19:02.586Z,19.30
2018-08-13T22:21:32.725Z,14.83
2018-08-13T22:24:19.395Z,20.27
2018-08-13T22:26:54.590Z,17.87
2018-08-13T22:29:29.595Z,23.53
2018-08-13T22:32:05.485Z,15.60
2018-08-13T22:34:41.198Z,15.30
2018-08-13T22:37:16.567Z,20.93
2018-08-13T22:39:51.506Z,16.27
2018-08-13T22:42:26.725Z,16.83
2018-08-13T22:45:02.597Z,15.00
2018-08-13T22:47:38.114Z,17.93
2018-08-13T22:50:14.093Z,24.50
2018-08-13T22:52:50.160Z,17.63
2018-08-13T22:55:25.538Z,17.00
2018-08-13T22:58:01.077Z,14.27
2018-08-13T23:00:36.718Z,8.87
2018-08-13T23:03:12.222Z,15.37
2018-08-13T23:05:48.479Z,9.70
2018-08-13T23:08:23.577Z,9.63
2018-08-13T23:10:58.886Z,10.43
2018-08-13T23:13:34.404Z,9.60
2018-08-13T23:16:10.068Z,10.60
2018-08-13T23:18:45.574Z,12.73
2018-08-13T23:21:20.710Z,11.07
2018-08-13T23:23:55.928Z,11.40
2018-08-13T23:26:31.634Z,11.80
2018-08-13T23:29:06.991Z,10.50
2018-08-13T23:31:42.196Z,11.60
2018-08-13T23:34:17.414Z,10.43
2018-08-13T23:36:52.310Z,12.50
2018-08-13T23:39:28.224Z,12.73
2018-08-13T23:42:03.237Z,14.10
2018-08-13T23:44:38.194Z,14.17
2018-08-13T23:47:15.865Z,12.53
2018-08-13T23:49:51.290Z,14.60
2018-08-13T23:52:26.406Z,12.17
2018-08-13T23:55:01.519Z,12.20
2018-08-13T23:57:36.598Z,13.13
